Otay Mountain (75, 260, 536) Station Data

Red Flag Warning: No
Fire Weather Zone: 250
SDGE Region: Eastern
Lat/Lon: 32.599/-116.843

Observations

Time Wind Speed/Gust Temp(F) RH Fuel Moist Fuel Temp(F) Dewpt(F) Tmax(F) Tmin(F) Accum Precip 10-min Precip SL Press(mb)
3/29 8:00am 269 3 G 4 62° 10% - - 63.5° 58.8° - - -
3/29 7:50am 274 2 G 2 63° 10% - - 63.5° 58.8° - - -
3/29 7:40am 279 2 G 3 63° 10% - - 63.5° 58.8° - - -
3/29 7:30am 239 1 G 2 63° 10% - - 63.5° 58.8° - - -
3/29 7:20am 261 1 G 3 63° 10% - - 63.4° 58.8° - - -
3/29 7:10am 269 2 G 4 63° 10% - - 63.4° 58.8° - - -
3/29 7:00am 59 1 G 2 62° 10% - - 63° 58.8° - - -
3/29 6:50am 256 0 G 1 61° 10% - - 62.5° 58.8° - - -
3/29 6:40am 312 1 G 3 61° 10% - - 62.5° 58.8° - - -
3/29 6:30am 25 3 G 5 62° 10% - - 62.5° 58.8° - - -
3/29 6:20am 44 3 G 5 62° 10% - - 62.5° 58.8° - - -
3/29 6:10am 350 3 G 6 61° 10% - - 62.1° 58.8° - - -
3/29 6:00am 316 5 G 7 61° 10% - - 62.1° 58.8° - - -
3/29 5:50am 335 6 G 6 62° 10% - - 62.1° 58.8° - - -
3/29 5:40am 9 5 G 7 62° 10% - - 62.1° 58.8° - - -
3/29 5:30am 26 6 G 7 62° 10% - - 62.1° 58.8° - - -
3/29 5:20am 2 5 G 8 62° 10% - - 62.1° 58.8° - - -
3/29 5:10am 352 7 G 8 62° 10% - - 62.1° 58.8° - - -
3/29 5:00am 351 6 G 8 62° 10% - - 62.1° 58.8° - - -
3/29 4:50am 10 6 G 8 61° 10% - - 61.9° 58.8° - - -
3/29 4:40am 35 7 G 8 60° 11% - - 61.9° 58.8° - - -
3/29 4:30am 43 6 G 8 60° 12% - - 61.9° 58.8° - - -
3/29 4:20am 60 5 G 8 60° 11% - - 61.9° 58.8° - - -
3/29 4:10am 44 6 G 9 60° 11% - - 61.9° 58.8° - - -
3/29 4:00am 39 7 G 10 60° 11% - - 61.9° 58.8° - - -
3/29 3:50am 35 7 G 9 61° 10% - - 61.9° 58.8° - - -
3/29 3:40am 33 7 G 11 61° 10% - - 61.9° 58.8° - - -
3/29 3:30am 28 4 G 8 61° 10% - - 61.9° 58.8° - - -
3/29 3:20am 35 4 G 7 61° 10% - - 61.9° 58.8° - - -
3/29 3:10am 35 5 G 8 62° 10% - - 61.9° 58.8° - - -
3/29 3:00am 29 5 G 8 62° 10% - - 61.9° 58.8° - - -
3/29 2:50am 26 4 G 8 62° 10% - - 61.9° 58.8° - - -
3/29 2:40am 48 5 G 6 61° 11% - - 61.6° 58.8° - - -
3/29 2:30am 74 4 G 8 60° 11% - - 60.8° 58.8° - - -
3/29 2:20am 100 6 G 12 60° 12% - - 60.8° 58.8° - - -
3/29 2:10am 96 11 G 16 59° 12% - - 60.8° 58.8° - - -
3/29 2:00am 97 11 G 17 60° 12% - - 60.8° 58.8° - - -
3/29 1:50am 88 12 G 14 60° 12% - - 60.8° 58.8° - - -
3/29 1:40am 91 13 G 15 60° 12% - - 60.8° 58.8° - - -
3/29 1:30am 89 13 G 15 59° 12% - - 60.8° 58.8° - - -
3/29 1:20am 89 14 G 16 59° 12% - - 60.8° 58.8° - - -
3/29 1:10am 90 15 G 17 60° 12% - - 60.8° 59.1° - - -
3/29 1:00am 91 16 G 18 60° 12% - - 60.8° 59.4° - - -
3/29 12:50am 89 17 G 20 60° 12% - - 60.8° 59.4° - - -
3/29 12:40am 88 17 G 21 60° 12% - - 60.8° 59.4° - - -
3/29 12:30am 93 14 G 19 60° 14% - - 10° 60.8° 59.4° - - -
3/29 12:20am 92 14 G 19 60° 13% - - 10° 60.8° 59.4° - - -
3/29 12:10am 89 12 G 16 60° 19% - - 17° 60.7° 59.4° - - -
3/29 12:00am 88 10 G 12 60° 29% - - 27° 60.2° 46° - - -
3/28 11:50pm 89 10 G 11 60° 30% - - 28° 60.2° 46° - - -
3/28 11:40pm 82 8 G 9 60° 30% - - 28° 60.2° 46° - - -
3/28 11:30pm 73 6 G 8 60° 30% - - 28° 60.2° 46° - - -
3/28 11:20pm 77 6 G 8 59° 36% - - 32° 59.8° 46° - - -
3/28 11:10pm 66 6 G 9 58° 39% - - 34° 59.8° 46° - - -
3/28 11:00pm 61 7 G 10 58° 44% - - 36° 59.8° 46° - - -
3/28 10:50pm 55 7 G 9 58° 45% - - 37° 59.8° 46° - - -
3/28 10:40pm 47 7 G 9 57° 47% - - 37° 59.8° 46° - - -
3/28 10:30pm 39 7 G 9 57° 48% - - 37° 59.8° 46° - - -
3/28 10:20pm 42 8 G 10 57° 49% - - 38° 59.8° 46° - - -
3/28 10:10pm 44 9 G 10 57° 50% - - 38° 59.8° 46° - - -
3/28 10:00pm 37 9 G 11 57° 48% - - 38° 59.8° 46° - - -
3/28 9:50pm 43 9 G 10 56° 51% - - 39° 59.8° 46° - - -
3/28 9:40pm 46 9 G 10 56° 52% - - 39° 59.8° 46° - - -
3/28 9:30pm 36 10 G 12 56° 53% - - 39° 59.8° 46° - - -
3/28 9:20pm 35 10 G 11 55° 54% - - 39° 59.8° 46° - - -
3/28 9:10pm 28 10 G 13 55° 53% - - 38° 59.8° 46° - - -
3/28 9:00pm 16 9 G 10 55° 53% - - 38° 59.8° 46° - - -
3/28 8:50pm 8 7 G 9 54° 47% - - 34° 59.8° 46° - - -
3/28 8:40pm 343 8 G 10 53° 29% - - 21° 59.8° 46° - - -
3/28 8:30pm 351 8 G 9 52° 36% - - 26° 59.8° 46° - - -
3/28 8:20pm 356 6 G 9 51° 55% - - 36° 59.8° 46° - - -
3/28 8:10pm 13 7 G 8 53° 56% - - 38° 59.8° 46° - - -
3/28 8:00pm 27 7 G 8 52° 57% - - 38° 59.8° 46° - - -
3/28 7:50pm 12 6 G 8 53° 56% - - 38° 59.8° 46° - - -
3/28 7:40pm 10 6 G 9 54° 55% - - 38° 59.8° 46° - - -
3/28 7:30pm 11 6 G 8 54° 55% - - 38° 59.8° 46° - - -
3/28 7:20pm 351 5 G 7 54° 54% - - 38° 59.8° 46° - - -
3/28 7:10pm 7 7 G 9 54° 56% - - 39° 59.8° 46° - - -
3/28 7:00pm 344 7 G 9 54° 57% - - 39° 59.8° 46° - - -
3/28 6:50pm 337 7 G 10 54° 58% - - 40° 59.8° 46° - - -
3/28 6:40pm 4 7 G 10 54° 59% - - 40° 59.8° 46° - - -
3/28 6:30pm 314 4 G 7 54° 63% - - 42° 59.8° 46° - - -
3/28 6:20pm 301 4 G 6 55° 61% - - 42° 59.8° 46° - - -
3/28 6:10pm 290 5 G 8 55° 62% - - 42° 59.8° 46° - - -
3/28 6:00pm 300 6 G 8 55° 62% - - 42° 59.8° 46° - - -
3/28 5:50pm 282 7 G 11 56° 61% - - 43° 59.8° 46° - - -
3/28 5:40pm 271 6 G 10 55° 61% - - 42° 59.8° 46° - - -
3/28 5:30pm 266 8 G 11 56° 58% - - 41° 59.8° 46° - - -
3/28 5:20pm 287 7 G 13 56° 54% - - 40° 59.8° 46° - - -
3/28 5:10pm 267 9 G 13 57° 53% - - 40° 59.8° 46° - - -
3/28 5:00pm 265 7 G 12 57° 54% - - 41° 59.8° 46° - - -
3/28 4:50pm 277 6 G 10 57° 56% - - 41° 59.8° 46° - - -
3/28 4:40pm 271 6 G 14 57° 56% - - 42° 59.8° 46° - - -
3/28 4:30pm 261 6 G 11 58° 56% - - 42° 59.8° 46° - - -
3/28 4:20pm 248 6 G 11 57° 58% - - 42° 59.8° 46° - - -
3/28 4:10pm 274 6 G 12 57° 59% - - 43° 59.8° 46° - - -
3/28 4:00pm 269 7 G 14 57° 61% - - 43° 59.8° 46° - - -
3/28 3:50pm 260 8 G 12 57° 61% - - 44° 59.8° 46° - - -
3/28 3:40pm 261 9 G 15 57° 59% - - 43° 59.8° 46° - - -
3/28 3:30pm 256 7 G 12 57° 57% - - 42° 59.8° 46° - - -
3/28 3:20pm 262 7 G 14 57° 58% - - 42° 59.8° 46° - - -
3/28 3:10pm 263 10 G 15 57° 59% - - 43° 59.8° 46° - - -
3/28 3:00pm 255 9 G 13 58° 57% - - 43° 59.8° 46° - - -
3/28 2:50pm 265 10 G 16 58° 49% - - 39° 59.8° 46° - - -
3/28 2:40pm 265 9 G 16 59° 37% - - 32° 59.8° 46° - - -
3/28 2:30pm 268 9 G 14 58° 34% - - 29° 59.8° 46° - - -
3/28 2:20pm 263 11 G 16 59° 44% - - 37° 59.8° 46° - - -
3/28 2:10pm 256 11 G 17 59° 37% - - 32° 59.7° 46° - - -
3/28 2:00pm 265 11 G 16 59° 39% - - 34° 59.5° 46° - - -
3/28 1:50pm 265 11 G 18 59° 44% - - 37° 59.5° 46° - - -
3/28 1:40pm 258 10 G 16 58° 58% - - 43° 59.4° 46° - - -
3/28 1:30pm 264 9 G 14 57° 61% - - 44° 59.4° 46° - - -
3/28 1:20pm 260 11 G 16 57° 51% - - 39° 59.4° 46° - - -
3/28 1:10pm 265 10 G 15 58° 41% - - 34° 59.4° 46° - - -
3/28 1:00pm 252 7 G 12 58° 40% - - 34° 59.4° 46° - - -
3/28 12:50pm 249 6 G 10 58° 44% - - 37° 59.4° 46° - - -
3/28 12:40pm 239 4 G 8 58° 46% - - 38° 59.4° 46° - - -
3/28 12:30pm 267 4 G 9 57° 48% - - 37° 59.4° 46° - - -
3/28 12:20pm 269 5 G 10 58° 49% - - 39° 59.4° 46° - - -
3/28 12:10pm 240 2 G 5 58° 53% - - 41° 59.3° 46° - - -
3/28 12:00pm 248 3 G 6 58° 54% - - 42° 59.1° 46° - - -
3/28 11:50am 237 3 G 6 58° 56% - - 42° 58.9° 46° - - -
3/28 11:40am 242 3 G 8 58° 55% - - 42° 58.9° 46° - - -
3/28 11:30am 237 3 G 6 56° 56% - - 41° 58.4° 46° - - -
3/28 11:20am 228 3 G 8 57° 51% - - 39° 58.4° 46° - - -
3/28 11:10am 252 3 G 6 56° 47% - - 36° 58.4° 46° - - -
3/28 11:00am 253 3 G 5 56° 44% - - 35° 58.4° 46° - - -
3/28 10:50am 274 2 G 6 58° 37% - - 32° 58.4° 46° - - -
3/28 10:40am 208 2 G 4 57° 35% - - 30° 58.3° 46° - - -
3/28 10:30am 239 1 G 4 57° 34% - - 30° 58.3° 46° - - -
3/28 10:20am 265 1 G 3 56° 36% - - 29° 58.3° 46° - - -
3/28 10:10am 274 2 G 3 56° 34% - - 28° 58.3° 46° - - -
3/28 10:00am 248 2 G 7 57° 33% - - 29° 58.3° 46° - - -
3/28 9:50am 31 3 G 6 58° 22% - - 19° 58.3° 46° - - -
3/28 9:40am 44 4 G 7 57° 20% - - 17° 58.1° 46° - - -
3/28 9:30am 64 6 G 8 57° 18% - - 14° 57.6° 46° - - -
3/28 9:20am 45 6 G 11 57° 19% - - 15° 57.1° 46° - - -
3/28 9:10am 41 6 G 10 56° 19% - - 14° 57.1° 46° - - -
3/28 9:00am 38 6 G 9 56° 19% - - 14° 57.1° 46° - - -
3/28 8:50am 53 6 G 10 57° 21% - - 17° 57.1° 46° - - -
3/28 8:40am 73 8 G 14 56° 21% - - 16° 57.1° 46° - - -
3/28 8:30am 80 7 G 11 56° 24% - - 20° 57.1° 46° - - -
3/28 8:20am 84 5 G 8 56° 26% - - 22° 57.1° 46° - - -
3/28 8:10am 68 4 G 7 56° 24% - - 20° 57.1° 46° - - -
3/28 8:00am 60 5 G 6 55° 26% - - 21° 56.5° 46° - - -
3/28 7:50am 62 4 G 8 53° 37% - - 27° 54.4° 46° - - -
3/28 7:40am 5 1 G 4 52° 38% - - 27° 53.4° 46° - - -
3/28 7:30am 348 3 G 5 51° 40% - - 27° 53.1° 46° - - -
3/28 7:20am 36 3 G 7 52° 32% - - 23° 53.1° 46° - - -
3/28 7:10am 51 3 G 7 52° 29% - - 21° 53° 46° - - -
3/28 7:00am 24 5 G 8 50° 42% - - 27° 51.1° 46° - - -
3/28 6:50am 16 5 G 7 48° 56% - - 33° 50.2° 46° - - -
3/28 6:40am 18 5 G 8 49° 50% - - 31° 50.2° 46° - - -
3/28 6:30am 31 8 G 10 49° 50% - - 31° 50.2° 46° - - -
3/28 6:20am 29 10 G 12 49° 49% - - 31° 50.2° 46° - - -
3/28 6:10am 29 8 G 10 48° 56% - - 33° 50.2° 46° - - -
3/28 6:00am 19 7 G 11 48° 57% - - 34° 50.2° 46° - - -